sensor_id;sensor_type;location;lat;lon;timestamp;pressure;altitude;pressure_sealevel;temperature;humidity
62680;BME280;68213;40.528;44.712;2023-07-20T00:00:26;80556.25;;;12.00;61.21
62680;BME280;68213;40.528;44.712;2023-07-20T00:01:26;80550.97;;;12.00;61.54
62680;BME280;68213;40.528;44.712;2023-07-20T00:02:27;80567.38;;;11.99;61.59
62680;BME280;68213;40.528;44.712;2023-07-20T00:03:28;80571.81;;;11.96;61.60
62680;BME280;68213;40.528;44.712;2023-07-20T00:04:29;80559.91;;;11.95;61.69
62680;BME280;68213;40.528;44.712;2023-07-20T00:05:29;80571.72;;;11.94;61.60
62680;BME280;68213;40.528;44.712;2023-07-20T00:06:30;80563.63;;;11.90;61.55
62680;BME280;68213;40.528;44.712;2023-07-20T00:07:31;80569.38;;;11.86;61.84
62680;BME280;68213;40.528;44.712;2023-07-20T00:08:31;80568.09;;;11.87;61.79
62680;BME280;68213;40.528;44.712;2023-07-20T00:09:32;80563.50;;;11.88;61.66
62680;BME280;68213;40.528;44.712;2023-07-20T00:10:33;80562.94;;;11.89;61.16
62680;BME280;68213;40.528;44.712;2023-07-20T00:11:36;80566.94;;;11.90;61.90
62680;BME280;68213;40.528;44.712;2023-07-20T00:12:38;80567.50;;;11.89;61.92
62680;BME280;68213;40.528;44.712;2023-07-20T00:13:39;80560.88;;;11.88;62.02
62680;BME280;68213;40.528;44.712;2023-07-20T00:14:40;80571.41;;;11.88;61.92
62680;BME280;68213;40.528;44.712;2023-07-20T00:15:41;80559.81;;;11.79;61.59
62680;BME280;68213;40.528;44.712;2023-07-20T00:16:42;80568.59;;;11.84;61.72
62680;BME280;68213;40.528;44.712;2023-07-20T00:17:43;80572.00;;;11.86;61.70
62680;BME280;68213;40.528;44.712;2023-07-20T00:18:45;80567.50;;;11.89;61.80
62680;BME280;68213;40.528;44.712;2023-07-20T00:19:46;80568.09;;;11.87;61.80
62680;BME280;68213;40.528;44.712;2023-07-20T00:20:48;80564.81;;;11.87;61.85
62680;BME280;68213;40.528;44.712;2023-07-20T00:21:48;80537.56;;;11.68;61.79
62680;BME280;68213;40.528;44.712;2023-07-20T00:22:49;80570.16;;;11.89;61.92
62680;BME280;68213;40.528;44.712;2023-07-20T00:23:52;80573.38;;;11.87;62.13
62680;BME280;68213;40.528;44.712;2023-07-20T00:24:53;80568.78;;;11.88;62.04
62680;BME280;68213;40.528;44.712;2023-07-20T00:25:54;80570.16;;;11.89;61.83
62680;BME280;68213;40.528;44.712;2023-07-20T00:26:54;80556.31;;;11.88;61.94
62680;BME280;68213;40.528;44.712;2023-07-20T00:27:55;80572.09;;;11.88;61.79
62680;BME280;68213;40.528;44.712;2023-07-20T00:28:56;80567.22;;;11.83;62.13
62680;BME280;68213;40.528;44.712;2023-07-20T00:29:57;80571.88;;;11.70;62.83
62680;BME280;68213;40.528;44.712;2023-07-20T00:30:59;80574.00;;;11.60;63.29
62680;BME280;68213;40.528;44.712;2023-07-20T00:32:00;80563.59;;;11.62;62.80
62680;BME280;68213;40.528;44.712;2023-07-20T00:33:01;80572.56;;;11.71;62.52
62680;BME280;68213;40.528;44.712;2023-07-20T00:34:04;80570.81;;;11.75;62.31
62680;BME280;68213;40.528;44.712;2023-07-20T00:35:05;80575.00;;;11.81;62.32
62680;BME280;68213;40.528;44.712;2023-07-20T00:36:06;80579.13;;;11.84;62.17
62680;BME280;68213;40.528;44.712;2023-07-20T00:37:07;80577.84;;;11.85;62.19
62680;BME280;68213;40.528;44.712;2023-07-20T00:38:08;80572.69;;;11.87;62.32
62680;BME280;68213;40.528;44.712;2023-07-20T00:39:09;80579.22;;;11.86;62.46
62680;BME280;68213;40.528;44.712;2023-07-20T00:40:10;80570.16;;;11.89;62.38
62680;BME280;68213;40.528;44.712;2023-07-20T00:41:10;80580.00;;;11.88;62.61
62680;BME280;68213;40.528;44.712;2023-07-20T00:42:11;80573.97;;;11.86;62.79
62680;BME280;68213;40.528;44.712;2023-07-20T00:43:12;80572.19;;;11.77;63.18
62680;BME280;68213;40.528;44.712;2023-07-20T00:44:12;80575.81;;;11.83;62.77
62680;BME280;68213;40.528;44.712;2023-07-20T00:45:13;80575.81;;;11.83;62.93
62680;BME280;68213;40.528;44.712;2023-07-20T00:46:14;80579.59;;;11.80;62.98
62680;BME280;68213;40.528;44.712;2023-07-20T00:47:15;80575.00;;;11.81;63.15
62680;BME280;68213;40.528;44.712;2023-07-20T00:48:16;80577.75;;;11.83;62.91
62680;BME280;68213;40.528;44.712;2023-07-20T00:49:17;80576.50;;;11.84;63.15
62680;BME280;68213;40.528;44.712;2023-07-20T00:50:21;80575.72;;;11.81;63.45
62680;BME280;68213;40.528;44.712;2023-07-20T00:51:23;80576.38;;;11.82;63.38
62680;BME280;68213;40.528;44.712;2023-07-20T00:52:25;80572.47;;;11.83;63.24
62680;BME280;68213;40.528;44.712;2023-07-20T00:53:28;80577.66;;;11.81;63.32
62680;BME280;68213;40.528;44.712;2023-07-20T00:54:29;80552.75;;;11.56;63.66
62680;BME280;68213;40.528;44.712;2023-07-20T00:55:30;80576.09;;;11.75;63.65
62680;BME280;68213;40.528;44.712;2023-07-20T00:56:32;80576.19;;;11.78;63.64
62680;BME280;68213;40.528;44.712;2023-07-20T00:57:32;80554.13;;;11.71;63.38
62680;BME280;68213;40.528;44.712;2023-07-20T00:58:33;80567.91;;;11.83;63.26
62680;BME280;68213;40.528;44.712;2023-07-20T00:59:34;80570.63;;;11.85;63.25
62680;BME280;68213;40.528;44.712;2023-07-20T01:00:36;80568.09;;;11.87;63.28
62680;BME280;68213;40.528;44.712;2023-07-20T01:01:37;80570.06;;;11.87;63.60
62680;BME280;68213;40.528;44.712;2023-07-20T01:02:37;80563.50;;;11.88;63.41
62680;BME280;68213;40.528;44.712;2023-07-20T01:03:38;80572.22;;;11.90;63.63
62680;BME280;68213;40.528;44.712;2023-07-20T01:04:39;80567.50;;;11.89;63.60
62680;BME280;68213;40.528;44.712;2023-07-20T01:06:26;80568.78;;;11.88;63.78
62680;BME280;68213;40.528;44.712;2023-07-20T01:07:34;80564.31;;;11.90;63.95
62680;BME280;68213;40.528;44.712;2023-07-20T01:08:45;80560.88;;;11.88;64.00
62680;BME280;68213;40.528;44.712;2023-07-20T01:10:05;80564.03;;;11.98;64.00
62680;BME280;68213;40.528;44.712;2023-07-20T01:11:15;80566.00;;;11.98;63.90
62680;BME280;68213;40.528;44.712;2023-07-20T01:12:18;80568.03;;;11.99;64.05
62680;BME280;68213;40.528;44.712;2023-07-20T01:13:23;80572.72;;;12.01;64.11
62680;BME280;68213;40.528;44.712;2023-07-20T01:14:26;80566.69;;;11.98;64.23
62680;BME280;68213;40.528;44.712;2023-07-20T01:15:27;80569.91;;;11.97;64.34
62680;BME280;68213;40.528;44.712;2023-07-20T01:16:28;80570.56;;;11.97;64.36
62680;BME280;68213;40.528;44.712;2023-07-20T01:17:29;80566.78;;;12.00;64.30
62680;BME280;68213;40.528;44.712;2023-07-20T01:18:29;80572.81;;;12.03;64.49
62680;BME280;68213;40.528;44.712;2023-07-20T01:19:30;80563.66;;;12.04;64.56
62680;BME280;68213;40.528;44.712;2023-07-20T01:20:33;80578.28;;;12.07;64.56
62680;BME280;68213;40.528;44.712;2023-07-20T01:21:41;80567.25;;;12.11;64.53
62680;BME280;68213;40.528;44.712;2023-07-20T01:27:10;80573.91;;;12.12;64.83
62680;BME280;68213;40.528;44.712;2023-07-20T01:31:25;80573.22;;;12.11;64.99
62680;BME280;68213;40.528;44.712;2023-07-20T01:32:29;80558.63;;;11.96;65.21
62680;BME280;68213;40.528;44.712;2023-07-20T01:33:33;80577.63;;;12.06;65.22
62680;BME280;68213;40.528;44.712;2023-07-20T01:34:35;80569.41;;;12.00;65.57
62680;BME280;68213;40.528;44.712;2023-07-20T01:35:38;80578.69;;;12.01;65.54
62680;BME280;68213;40.528;44.712;2023-07-20T01:36:41;80573.41;;;12.01;65.68
62680;BME280;68213;40.528;44.712;2023-07-20T01:37:44;80582.59;;;12.00;65.77
62680;BME280;68213;40.528;44.712;2023-07-20T01:38:46;80576.06;;;12.01;65.89
62680;BME280;68213;40.528;44.712;2023-07-20T01:39:47;80579.94;;;12.00;66.03
62680;BME280;68213;40.528;44.712;2023-07-20T01:40:48;80579.38;;;12.02;65.90
62680;BME280;68213;40.528;44.712;2023-07-20T01:41:49;80578.47;;;11.97;66.19
62680;BME280;68213;40.528;44.712;2023-07-20T01:42:53;80581.31;;;12.01;66.12
62680;BME280;68213;40.528;44.712;2023-07-20T01:43:57;80585.41;;;12.04;66.23
62680;BME280;68213;40.528;44.712;2023-07-20T01:44:59;80584.16;;;12.05;66.08
62680;BME280;68213;40.528;44.712;2023-07-20T01:46:00;80584.75;;;12.04;66.33
62680;BME280;68213;40.528;44.712;2023-07-20T01:47:01;80580.84;;;12.05;66.33
62680;BME280;68213;40.528;44.712;2023-07-20T01:48:01;80584.25;;;12.08;66.34
62680;BME280;68213;40.528;44.712;2023-07-20T01:49:02;80584.94;;;12.08;66.17
62680;BME280;68213;40.528;44.712;2023-07-20T01:50:03;80593.53;;;12.09;66.25
62680;BME280;68213;40.528;44.712;2023-07-20T01:51:04;80589.63;;;12.10;66.42
62680;BME280;68213;40.528;44.712;2023-07-20T01:52:05;80576.44;;;12.10;66.34
62680;BME280;68213;40.528;44.712;2023-07-20T01:53:06;80587.06;;;12.12;66.37
62680;BME280;68213;40.528;44.712;2023-07-20T01:54:07;80585.13;;;12.12;66.33
62680;BME280;68213;40.528;44.712;2023-07-20T01:55:10;80586.28;;;12.09;66.50
62680;BME280;68213;40.528;44.712;2023-07-20T01:56:11;80589.63;;;12.10;66.44
62680;BME280;68213;40.528;44.712;2023-07-20T01:57:12;80583.06;;;12.11;66.47
62680;BME280;68213;40.528;44.712;2023-07-20T01:58:13;80593.72;;;12.13;66.39
62680;BME280;68213;40.528;44.712;2023-07-20T01:59:14;80586.50;;;12.13;66.28
62680;BME280;68213;40.528;44.712;2023-07-20T02:00:15;80584.66;;;12.16;66.36
62680;BME280;68213;40.528;44.712;2023-07-20T02:01:16;80586.03;;;12.17;66.43
62680;BME280;68213;40.528;44.712;2023-07-20T02:02:16;80586.09;;;12.19;66.41
62680;BME280;68213;40.528;44.712;2023-07-20T02:03:18;80587.47;;;12.20;66.28
62680;BME280;68213;40.528;44.712;2023-07-20T02:04:19;80583.47;;;12.19;66.45
62680;BME280;68213;40.528;44.712;2023-07-20T02:05:20;80587.56;;;12.22;66.37
62680;BME280;68213;40.528;44.712;2023-07-20T02:06:21;80593.63;;;12.25;66.28
62680;BME280;68213;40.528;44.712;2023-07-20T02:07:21;80565.69;;;12.05;66.45
62680;BME280;68213;40.528;44.712;2023-07-20T02:08:22;80595.66;;;12.26;66.38
62680;BME280;68213;40.528;44.712;2023-07-20T02:09:25;80594.41;;;12.27;66.34
62680;BME280;68213;40.528;44.712;2023-07-20T02:10:26;80597.75;;;12.28;66.39
62680;BME280;68213;40.528;44.712;2023-07-20T02:11:27;80591.19;;;12.29;66.46
62680;BME280;68213;40.528;44.712;2023-07-20T02:12:27;80595.88;;;12.30;66.51
62680;BME280;68213;40.528;44.712;2023-07-20T02:13:28;80595.97;;;12.32;66.52
62680;BME280;68213;40.528;44.712;2023-07-20T02:14:29;80593.44;;;12.34;66.51
62680;BME280;68213;40.528;44.712;2023-07-20T02:15:29;80589.53;;;12.35;66.99
62680;BME280;68213;40.528;44.712;2023-07-20T02:16:30;80594.81;;;12.35;66.50
62680;BME280;68213;40.528;44.712;2023-07-20T02:17:31;80589.72;;;12.40;66.05
62680;BME280;68213;40.528;44.712;2023-07-20T02:18:52;80579.28;;;12.28;66.31
62680;BME280;68213;40.528;44.712;2023-07-20T02:19:53;80591.09;;;12.41;66.31
62680;BME280;68213;40.528;44.712;2023-07-20T02:20:55;80597.22;;;12.45;66.32
62680;BME280;68213;40.528;44.712;2023-07-20T02:21:58;80592.75;;;12.48;65.85
62680;BME280;68213;40.528;44.712;2023-07-20T02:22:59;80598.88;;;12.52;65.67
62680;BME280;68213;40.528;44.712;2023-07-20T02:24:00;80596.53;;;12.59;65.65
62680;BME280;68213;40.528;44.712;2023-07-20T02:25:01;80578.22;;;12.47;65.67
62680;BME280;68213;40.528;44.712;2023-07-20T02:26:02;80593.34;;;12.60;65.97
62680;BME280;68213;40.528;44.712;2023-07-20T02:27:03;80589.00;;;12.67;65.45
62680;BME280;68213;40.528;44.712;2023-07-20T02:28:04;80595.88;;;12.72;65.43
62680;BME280;68213;40.528;44.712;2023-07-20T02:29:04;80594.00;;;12.75;65.29
62680;BME280;68213;40.528;44.712;2023-07-20T02:30:09;80586.47;;;12.69;65.64
62680;BME280;68213;40.528;44.712;2023-07-20T02:31:10;80594.19;;;12.79;65.43
62680;BME280;68213;40.528;44.712;2023-07-20T02:32:10;80594.38;;;12.83;65.32
62680;BME280;68213;40.528;44.712;2023-07-20T02:33:11;80595.25;;;12.88;64.97
62680;BME280;68213;40.528;44.712;2023-07-20T02:34:12;80600.03;;;12.91;65.24
62680;BME280;68213;40.528;44.712;2023-07-20T02:35:15;80593.56;;;12.94;65.17
62680;BME280;68213;40.528;44.712;2023-07-20T02:36:15;80587.69;;;12.96;65.04
62680;BME280;68213;40.528;44.712;2023-07-20T02:37:17;80596.41;;;12.98;65.19
62680;BME280;68213;40.528;44.712;2023-07-20T02:38:20;80597.84;;;13.01;64.75
62680;BME280;68213;40.528;44.712;2023-07-20T02:39:21;80588.75;;;13.05;64.38
62680;BME280;68213;40.528;44.712;2023-07-20T02:40:22;80591.59;;;13.09;64.66
62680;BME280;68213;40.528;44.712;2023-07-20T02:41:23;80599.31;;;13.05;65.26
62680;BME280;68213;40.528;44.712;2023-07-20T02:42:24;80599.81;;;13.01;65.53
62680;BME280;68213;40.528;44.712;2023-07-20T02:43:26;80602.72;;;13.07;65.54
62680;BME280;68213;40.528;44.712;2023-07-20T02:44:29;80585.94;;;13.00;65.63
62680;BME280;68213;40.528;44.712;2023-07-20T02:45:30;80605.66;;;13.13;65.46
62680;BME280;68213;40.528;44.712;2023-07-20T02:46:31;80592.94;;;13.10;64.96
62680;BME280;68213;40.528;44.712;2023-07-20T02:47:32;80598.09;;;13.22;64.50
62680;BME280;68213;40.528;44.712;2023-07-20T02:48:32;80600.41;;;13.29;64.72
62680;BME280;68213;40.528;44.712;2023-07-20T02:49:33;80606.56;;;13.34;63.97
62680;BME280;68213;40.528;44.712;2023-07-20T02:50:34;80606.19;;;13.40;64.03
62680;BME280;68213;40.528;44.712;2023-07-20T02:51:35;80600.50;;;13.45;64.08
62680;BME280;68213;40.528;44.712;2023-07-20T02:52:36;80603.41;;;13.52;63.71
62680;BME280;68213;40.528;44.712;2023-07-20T02:53:37;80600.44;;;13.59;63.57
62680;BME280;68213;40.528;44.712;2023-07-20T02:54:38;80603.94;;;13.64;63.45
62680;BME280;68213;40.528;44.712;2023-07-20T02:55:39;80602.00;;;13.64;64.65
62680;BME280;68213;40.528;44.712;2023-07-20T02:56:39;80609.06;;;13.60;64.81
62680;BME280;68213;40.528;44.712;2023-07-20T02:57:41;80605.91;;;13.63;63.22
62680;BME280;68213;40.528;44.712;2023-07-20T02:58:42;80601.81;;;13.60;64.94
62680;BME280;68213;40.528;44.712;2023-07-20T02:59:46;80608.66;;;13.66;64.57
62680;BME280;68213;40.528;44.712;2023-07-20T03:00:47;80603.69;;;13.74;64.75
62680;BME280;68213;40.528;44.712;2023-07-20T03:01:47;80606.53;;;13.78;64.39
62680;BME280;68213;40.528;44.712;2023-07-20T03:02:48;80583.00;;;13.68;64.39
62680;BME280;68213;40.528;44.712;2023-07-20T03:03:49;80604.34;;;13.88;64.62
62680;BME280;68213;40.528;44.712;2023-07-20T03:04:50;80603.91;;;13.94;64.69
62680;BME280;68213;40.528;44.712;2023-07-20T03:05:50;80606.81;;;14.00;64.10
62680;BME280;68213;40.528;44.712;2023-07-20T03:06:54;80607.91;;;13.95;64.71
62680;BME280;68213;40.528;44.712;2023-07-20T03:07:56;80610.31;;;14.05;65.40
62680;BME280;68213;40.528;44.712;2023-07-20T03:08:56;80606.50;;;14.08;65.40
62680;BME280;68213;40.528;44.712;2023-07-20T03:09:58;80598.81;;;13.98;66.19
62680;BME280;68213;40.528;44.712;2023-07-20T03:10:59;80611.94;;;14.12;65.80
62680;BME280;68213;40.528;44.712;2023-07-20T03:12:00;80615.53;;;14.19;65.62
62680;BME280;68213;40.528;44.712;2023-07-20T03:13:01;80610.41;;;14.23;64.11
62680;BME280;68213;40.528;44.712;2023-07-20T03:14:02;80610.69;;;14.29;65.80
62680;BME280;68213;40.528;44.712;2023-07-20T03:15:03;80611.25;;;14.27;64.04
62680;BME280;68213;40.528;44.712;2023-07-20T03:16:04;80605.66;;;14.35;62.27
62680;BME280;68213;40.528;44.712;2023-07-20T03:17:04;80613.31;;;14.45;63.16
62680;BME280;68213;40.528;44.712;2023-07-20T03:18:08;80613.66;;;14.53;63.47
62680;BME280;68213;40.528;44.712;2023-07-20T03:19:09;80611.34;;;14.62;63.06
62680;BME280;68213;40.528;44.712;2023-07-20T03:20:11;80612.13;;;14.64;64.52
62680;BME280;68213;40.528;44.712;2023-07-20T03:21:13;80607.00;;;14.68;64.03
62680;BME280;68213;40.528;44.712;2023-07-20T03:22:13;80611.19;;;14.73;62.80
62680;BME280;68213;40.528;44.712;2023-07-20T03:23:14;80609.47;;;14.80;62.21
62680;BME280;68213;40.528;44.712;2023-07-20T03:24:16;80606.38;;;14.86;62.07
62680;BME280;68213;40.528;44.712;2023-07-20T03:25:17;80605.97;;;14.91;60.77
62680;BME280;68213;40.528;44.712;2023-07-20T03:26:18;80613.44;;;14.97;60.49
62680;BME280;68213;40.528;44.712;2023-07-20T03:27:18;80610.22;;;14.99;60.13
62680;BME280;68213;40.528;44.712;2023-07-20T03:28:19;80605.06;;;15.03;60.24
62680;BME280;68213;40.528;44.712;2023-07-20T03:29:20;80609.09;;;15.04;60.58
62680;BME280;68213;40.528;44.712;2023-07-20T03:30:20;80584.03;;;14.89;59.58
62680;BME280;68213;40.528;44.712;2023-07-20T03:31:21;80615.13;;;15.06;60.11
62680;BME280;68213;40.528;44.712;2023-07-20T03:32:22;80615.31;;;15.11;59.62
62680;BME280;68213;40.528;44.712;2023-07-20T03:33:27;80606.97;;;15.00;59.54
62680;BME280;68213;40.528;44.712;2023-07-20T03:34:28;80611.06;;;15.03;59.81
62680;BME280;68213;40.528;44.712;2023-07-20T03:35:29;80617.53;;;15.00;60.94
62680;BME280;68213;40.528;44.712;2023-07-20T03:36:30;80610.22;;;14.99;61.40
62680;BME280;68213;40.528;44.712;2023-07-20T03:37:31;80615.56;;;15.01;61.88
62680;BME280;68213;40.528;44.712;2023-07-20T03:38:32;80617.03;;;15.04;62.11
62680;BME280;68213;40.528;44.712;2023-07-20T03:39:33;80615.13;;;15.06;61.03
62680;BME280;68213;40.528;44.712;2023-07-20T03:40:34;80613.72;;;15.03;61.58
62680;BME280;68213;40.528;44.712;2023-07-20T03:41:34;80618.41;;;15.05;61.93
62680;BME280;68213;40.528;44.712;2023-07-20T03:42:35;80608.66;;;14.94;62.37
62680;BME280;68213;40.528;44.712;2023-07-20T03:43:36;80615.50;;;14.99;61.40
62680;BME280;68213;40.528;44.712;2023-07-20T03:44:37;80618.91;;;15.01;61.39
62680;BME280;68213;40.528;44.712;2023-07-20T03:45:38;80609.00;;;15.02;62.81
62680;BME280;68213;40.528;44.712;2023-07-20T03:46:38;80615.41;;;14.97;62.92
62680;BME280;68213;40.528;44.712;2023-07-20T03:47:39;80616.53;;;14.91;62.15
62680;BME280;68213;40.528;44.712;2023-07-20T03:48:40;80614.66;;;14.94;62.17
62680;BME280;68213;40.528;44.712;2023-07-20T03:49:41;80621.25;;;14.77;65.36
62680;BME280;68213;40.528;44.712;2023-07-20T03:50:43;80618.09;;;14.81;63.71
62680;BME280;68213;40.528;44.712;2023-07-20T03:51:44;80614.84;;;14.82;64.11
62680;BME280;68213;40.528;44.712;2023-07-20T03:52:45;80616.22;;;14.83;63.99
62680;BME280;68213;40.528;44.712;2023-07-20T03:53:45;80612.34;;;14.86;64.13
62680;BME280;68213;40.528;44.712;2023-07-20T03:54:46;80618.88;;;14.83;64.13
62680;BME280;68213;40.528;44.712;2023-07-20T03:55:51;80613.91;;;14.91;63.07
62680;BME280;68213;40.528;44.712;2023-07-20T03:56:52;80617.81;;;14.90;63.60
62680;BME280;68213;40.528;44.712;2023-07-20T03:57:54;80620.09;;;14.98;63.61
62680;BME280;68213;40.528;44.712;2023-07-20T03:58:55;80618.91;;;15.01;63.40
62680;BME280;68213;40.528;44.712;2023-07-20T03:59:55;80622.31;;;15.04;61.62
62680;BME280;68213;40.528;44.712;2023-07-20T04:00:57;80617.13;;;15.06;61.93
62680;BME280;68213;40.528;44.712;2023-07-20T04:01:58;80623.84;;;15.09;62.14
62680;BME280;68213;40.528;44.712;2023-07-20T04:02:58;80620.66;;;15.13;62.42
62680;BME280;68213;40.528;44.712;2023-07-20T04:03:59;80626.13;;;15.17;61.96
62680;BME280;68213;40.528;44.712;2023-07-20T04:05:00;80627.03;;;15.23;63.28
62680;BME280;68213;40.528;44.712;2023-07-20T04:06:01;80623.28;;;15.29;62.52
62680;BME280;68213;40.528;44.712;2023-07-20T04:07:01;80634.13;;;15.35;62.13
62680;BME280;68213;40.528;44.712;2023-07-20T04:08:02;80630.94;;;15.38;62.07
62680;BME280;68213;40.528;44.712;2023-07-20T04:09:03;80619.44;;;15.32;61.27
62680;BME280;68213;40.528;44.712;2023-07-20T04:10:06;80625.78;;;15.43;61.60
62680;BME280;68213;40.528;44.712;2023-07-20T04:11:07;80625.78;;;15.43;62.04
62680;BME280;68213;40.528;44.712;2023-07-20T04:12:07;80626.50;;;15.43;60.97
62680;BME280;68213;40.528;44.712;2023-07-20T04:13:08;80633.16;;;15.44;60.73
62680;BME280;68213;40.528;44.712;2023-07-20T04:14:09;80625.88;;;15.45;61.37
62680;BME280;68213;40.528;44.712;2023-07-20T04:15:10;80627.09;;;15.42;61.38
62680;BME280;68213;40.528;44.712;2023-07-20T04:16:13;80627.91;;;15.46;60.67
62680;BME280;68213;40.528;44.712;2023-07-20T04:17:14;80631.94;;;15.47;61.07
62680;BME280;68213;40.528;44.712;2023-07-20T04:18:14;80628.69;;;15.49;61.59
62680;BME280;68213;40.528;44.712;2023-07-20T04:19:15;80624.75;;;15.50;61.61
62680;BME280;68213;40.528;44.712;2023-07-20T04:20:18;80624.91;;;15.54;62.48
62680;BME280;68213;40.528;44.712;2023-07-20T04:21:19;80625.81;;;15.61;62.33
62680;BME280;68213;40.528;44.712;2023-07-20T04:22:19;80623.16;;;15.61;63.07
62680;BME280;68213;40.528;44.712;2023-07-20T04:23:20;80623.47;;;15.69;62.54
62680;BME280;68213;40.528;44.712;2023-07-20T04:24:21;80627.59;;;15.72;61.89
62680;BME280;68213;40.528;44.712;2023-07-20T04:25:22;80627.66;;;15.74;61.58
62680;BME280;68213;40.528;44.712;2023-07-20T04:26:22;80622.38;;;15.74;61.09
62680;BME280;68213;40.528;44.712;2023-07-20T04:27:23;80624.31;;;15.74;60.91
62680;BME280;68213;40.528;44.712;2023-07-20T04:28:24;80617.81;;;15.77;60.81
62680;BME280;68213;40.528;44.712;2023-07-20T04:29:25;80625.16;;;15.78;60.58
62680;BME280;68213;40.528;44.712;2023-07-20T04:30:25;80625.41;;;15.84;60.64
62680;BME280;68213;40.528;44.712;2023-07-20T04:31:26;80616.25;;;15.88;60.59
62680;BME280;68213;40.528;44.712;2023-07-20T04:32:27;80619.78;;;15.76;61.06
62680;BME280;68213;40.528;44.712;2023-07-20T04:33:28;80623.13;;;15.77;61.33
62680;BME280;68213;40.528;44.712;2023-07-20T04:34:29;80626.44;;;15.77;61.94
62680;BME280;68213;40.528;44.712;2023-07-20T04:35:54;80620.72;;;15.83;61.56
62680;BME280;68213;40.528;44.712;2023-07-20T04:36:57;80606.53;;;15.76;61.70
62680;BME280;68213;40.528;44.712;2023-07-20T04:37:58;80622.16;;;15.86;62.01
62680;BME280;68213;40.528;44.712;2023-07-20T04:38:59;80627.69;;;15.92;61.80
62680;BME280;68213;40.528;44.712;2023-07-20T04:40:00;80627.59;;;15.90;62.66
62680;BME280;68213;40.528;44.712;2023-07-20T04:41:01;80629.72;;;15.94;62.40
62680;BME280;68213;40.528;44.712;2023-07-20T04:42:01;80628.00;;;16.00;62.81
62680;BME280;68213;40.528;44.712;2023-07-20T04:43:02;80626.09;;;16.03;61.82
62680;BME280;68213;40.528;44.712;2023-07-20T04:44:03;80624.94;;;16.08;62.13
62680;BME280;68213;40.528;44.712;2023-07-20T04:45:04;80614.78;;;16.02;61.60
62680;BME280;68213;40.528;44.712;2023-07-20T04:46:05;80625.16;;;16.14;61.44
62680;BME280;68213;40.528;44.712;2023-07-20T04:47:08;80622.72;;;16.21;62.15
62680;BME280;68213;40.528;44.712;2023-07-20T04:48:13;80625.53;;;16.25;61.01
62680;BME280;68213;40.528;44.712;2023-07-20T04:49:14;80622.97;;;16.27;61.13
62680;BME280;68213;40.528;44.712;2023-07-20T04:50:15;80619.63;;;16.26;61.07
62680;BME280;68213;40.528;44.712;2023-07-20T04:51:16;80618.63;;;16.36;61.00
62680;BME280;68213;40.528;44.712;2023-07-20T04:52:21;80625.09;;;16.30;61.42
62680;BME280;68213;40.528;44.712;2023-07-20T04:53:21;80619.25;;;16.34;60.98
62680;BME280;68213;40.528;44.712;2023-07-20T04:54:25;80619.91;;;16.34;61.31
62680;BME280;68213;40.528;44.712;2023-07-20T04:55:28;80614.69;;;16.37;61.98
62680;BME280;68213;40.528;44.712;2023-07-20T04:56:28;80611.63;;;16.44;62.25
62680;BME280;68213;40.528;44.712;2023-07-20T04:57:29;80616.81;;;16.40;61.98
62680;BME280;68213;40.528;44.712;2023-07-20T04:58:30;80615.66;;;16.45;62.04
62680;BME280;68213;40.528;44.712;2023-07-20T04:59:32;80601.09;;;16.46;62.12
62680;BME280;68213;40.528;44.712;2023-07-20T05:00:34;80614.03;;;16.56;61.87
62680;BME280;68213;40.528;44.712;2023-07-20T05:01:38;80613.97;;;16.54;62.20
62680;BME280;68213;40.528;44.712;2023-07-20T05:02:38;80611.00;;;16.64;63.14
62680;BME280;68213;40.528;44.712;2023-07-20T05:03:39;80609.94;;;16.53;61.45
62680;BME280;68213;40.528;44.712;2023-07-20T05:04:40;80612.28;;;16.63;61.44
62680;BME280;68213;40.528;44.712;2023-07-20T05:05:41;80615.75;;;16.68;61.25
62680;BME280;68213;40.528;44.712;2023-07-20T05:06:41;80607.19;;;16.69;61.31
62680;BME280;68213;40.528;44.712;2023-07-20T05:07:42;80610.03;;;16.75;61.61
62680;BME280;68213;40.528;44.712;2023-07-20T05:08:43;80616.78;;;16.78;61.09
62680;BME280;68213;40.528;44.712;2023-07-20T05:09:44;80613.59;;;16.82;61.21
62680;BME280;68213;40.528;44.712;2023-07-20T05:10:45;80606.38;;;16.85;60.57
62680;BME280;68213;40.528;44.712;2023-07-20T05:11:46;80605.13;;;16.88;62.30
62680;BME280;68213;40.528;44.712;2023-07-20T05:12:48;80609.22;;;16.91;61.02
62680;BME280;68213;40.528;44.712;2023-07-20T05:13:48;80608.72;;;16.94;60.79
62680;BME280;68213;40.528;44.712;2023-07-20T05:14:49;80610.69;;;16.94;60.42
62680;BME280;68213;40.528;44.712;2023-07-20T05:15:53;80595.59;;;16.80;60.54
62680;BME280;68213;40.528;44.712;2023-07-20T05:16:54;80608.78;;;16.96;60.16
62680;BME280;68213;40.528;44.712;2023-07-20T05:17:55;80606.59;;;16.91;60.01
62680;BME280;68213;40.528;44.712;2023-07-20T05:18:56;80608.28;;;16.82;60.78
62680;BME280;68213;40.528;44.712;2023-07-20T05:19:58;80607.78;;;16.88;61.16
62680;BME280;68213;40.528;44.712;2023-07-20T05:20:58;80606.50;;;16.89;60.53
62680;BME280;68213;40.528;44.712;2023-07-20T05:21:59;80612.03;;;16.95;60.44
62680;BME280;68213;40.528;44.712;2023-07-20T05:23:00;80606.44;;;16.87;60.85
62680;BME280;68213;40.528;44.712;2023-07-20T05:24:01;80609.53;;;16.99;63.16
62680;BME280;68213;40.528;44.712;2023-07-20T05:25:02;80601.50;;;16.97;61.19
62680;BME280;68213;40.528;44.712;2023-07-20T05:26:03;80609.53;;;16.99;60.43
62680;BME280;68213;40.528;44.712;2023-07-20T05:27:07;80602.94;;;17.00;59.98
62680;BME280;68213;40.528;44.712;2023-07-20T05:28:08;80581.94;;;16.88;60.34
62680;BME280;68213;40.528;44.712;2023-07-20T05:29:09;80606.47;;;17.07;60.90
62680;BME280;68213;40.528;44.712;2023-07-20T05:30:10;80606.66;;;17.13;60.49